Flight Track Log - Related Links

Times and Time Zones

All times are in EDT time to prevent confusion due to time zone crossing. See the SWA1035 flight status page for this flight to view local times or setup timezone preferences in your user account.


Time Position Orientation Groundspeed Altitude Reporting Facility
EDT Latitude Longitude Course Direction KTS MPH feet Rate Location/Type
Fri 11:13:02 AM 27.9000 -82.5667 201° Southwest 206 237 3,300  Level Tampa TRACON
Fri 11:13:56 AM 27.8500 -82.6000 211° Southwest 237 273 6,400 2,718 Climbing Tampa TRACON
Fri 11:15:52 AM 27.9181 -82.7022 307° West 220 253 11,000 1,943 Climbing Jacksonville Center
Fri 11:16:52 AM 28.0183 -82.7208 351° North 263 303 12,100 950 Climbing Jacksonville Center
Fri 11:17:52 AM 28.1103 -82.7372 351° North 303 349 12,900 1,950 Climbing Jacksonville Center
Fri 11:18:52 AM 28.2083 -82.7511 353° North 330 380 16,000 2,450 Climbing Jacksonville Center
Fri 11:19:52 AM 28.3125 -82.7700 351° North 357 411 17,800 2,200 Climbing Jacksonville Center
Fri 11:20:52 AM 28.4233 -82.7864 353° North 385 443 20,400 2,600 Climbing Jacksonville Center
Fri 11:21:52 AM 28.5381 -82.8075 351° North 395 455 23,000 2,400 Climbing Jacksonville Center
Fri 11:22:52 AM 28.6425 -82.8547 338° Northwest 401 461 25,200 1,950 Climbing Jacksonville Center
Fri 11:23:52 AM 28.7322 -82.9208 327° Northwest 414 476 26,900 1,800 Climbing Jacksonville Center
Fri 11:24:52 AM 28.8344 -82.9922 329° Northwest 421 484 28,800 1,950 Climbing Jacksonville Center
Fri 11:25:52 AM 28.9450 -83.0706 328° Northwest 434 499 30,800 2,050 Climbing Jacksonville Center
Fri 11:26:52 AM 29.0492 -83.1419 329° Northwest 428 493 32,900 2,100 Climbing Jacksonville Center
Fri 11:27:52 AM 29.1450 -83.2111 328° Northwest 423 487 35,000 1,800 Climbing Jacksonville Center
Fri 11:28:52 AM 29.2431 -83.2758 330° Northwest 411 473 36,500 1,400 Climbing Jacksonville Center
Fri 11:29:52 AM 29.3347 -83.3428 328° Northwest 401 461 37,800 750 Climbing Jacksonville Center
Fri 11:30:52 AM 29.4283 -83.4075 329° Northwest 401 461 38,000 100 Climbing Jacksonville Center
Fri 11:31:52 AM 29.5242 -83.4750 329° Northwest 401 461 38,000  Level Jacksonville Center
Fri 11:32:52 AM 29.6156 -83.5400 328° Northwest 401 461 38,000  Level Jacksonville Center
Fri 11:33:52 AM 29.7092 -83.6053 329° Northwest 396 456 38,000  Level Jacksonville Center
Fri 11:34:52 AM 29.8028 -83.6706 329° Northwest 396 456 38,000  Level Jacksonville Center
Fri 11:35:52 AM 29.8942 -83.7358 328° Northwest 391 450 38,000  Level Jacksonville Center
Fri 11:36:52 AM 29.9856 -83.7992 329° Northwest 391 450 38,000  Level Jacksonville Center
Fri 11:37:52 AM 30.0750 -83.8647 328° Northwest 391 450 38,000  Level Jacksonville Center
Fri 11:38:52 AM 30.1664 -83.9306 328° Northwest 391 450 38,000  Level Jacksonville Center
Fri 11:39:52 AM 30.2575 -83.9939 329° Northwest 385 443 38,000  Level Jacksonville Center
Fri 11:40:52 AM 30.3467 -84.0575 328° Northwest 385 443 38,000  Level Jacksonville Center
Fri 11:41:52 AM 30.4189 -84.1475 313° West 380 437 38,000  Level Jacksonville Center
Fri 11:42:52 AM 30.4744 -84.2447 304° West 371 427 38,000  Level Jacksonville Center
Fri 11:43:52 AM 30.5381 -84.3469 306° West 377 434 38,000  Level Jacksonville Center
Fri 11:44:52 AM 30.6019 -84.4250 314° West 377 434 38,000  Level Jacksonville Center
Fri 11:45:52 AM 30.6861 -84.5208 316° Northwest 377 434 38,000  Level Jacksonville Center
Fri 11:46:52 AM 30.7581 -84.6067 314° West 377 434 38,000  Level Jacksonville Center
Fri 11:47:52 AM 30.8258 -84.6875 314° West 377 434 38,000  Level Jacksonville Center
Fri 11:48:52 AM 30.8997 -84.7761 314° West 377 434 38,000  Level Jacksonville Center
Fri 11:49:52 AM 30.9861 -84.8700 317° Northwest 385 443 38,000  Level Jacksonville Center
Fri 11:50:52 AM 31.0597 -84.9589 314° West 380 437 38,000  Level Jacksonville Center
Fri 11:51:52 AM 31.1233 -85.0378 313° West 380 437 38,000  Level Jacksonville Center
Fri 11:54:29 AM 31.3169 -85.2686 315° West 395 455 38,000  Level Atlanta Center
Fri 11:56:29 AM 31.4611 -85.4436 314° West 395 455 38,000  Level Atlanta Center
Fri 11:57:29 AM 31.5353 -85.5325 314° West 390 449 38,000  Level Atlanta Center
Fri 11:58:29 AM 31.6092 -85.6189 315° West 390 449 38,000  Level Atlanta Center
Fri 11:59:29 AM 31.6792 -85.7056 314° West 390 449 38,000  Level Atlanta Center
Fri 12:00:29 PM 31.7531 -85.7950 314° West 397 457 38,000  Level Atlanta Center
Fri 12:01:29 PM 31.8247 -85.8794 315° West 397 457 38,000  Level Atlanta Center
Fri 12:02:29 PM 31.8964 -85.9664 314° West 392 451 38,000  Level Atlanta Center
Fri 12:03:29 PM 31.9661 -86.0561 313° West 378 435 38,000  Level Atlanta Center
Fri 12:04:29 PM 32.0336 -86.1383 314° West 364 419 38,000  Level Atlanta Center
Fri 12:05:29 PM 32.1131 -86.2383 313° West 364 419 38,000  Level Atlanta Center
Fri 12:06:29 PM 32.1806 -86.3186 315° West 378 435 38,000  Level Atlanta Center
Fri 12:07:29 PM 32.2644 -86.4142 316° Northwest 366 421 38,000  Level Atlanta Center
Fri 12:08:29 PM 32.3358 -86.5019 314° West 374 430 38,000  Level Atlanta Center
Fri 12:09:29 PM 32.4089 -86.5925 314° West 369 425 38,000  Level Atlanta Center
Fri 12:10:29 PM 32.4761 -86.6783 313° West 364 419 38,000  Level Atlanta Center
Fri 12:11:29 PM 32.5431 -86.7639 313° West 353 406 38,000  Level Atlanta Center
Fri 12:12:29 PM 32.6142 -86.8525 314° West 353 406 38,000  Level Atlanta Center
Fri 12:13:29 PM 32.6875 -86.9339 317° Northwest 359 413 38,000  Level Atlanta Center
Fri 12:14:29 PM 32.7561 -87.0250 312° West 364 419 38,000  Level Atlanta Center
Fri 12:16:29 PM 32.9042 -87.2008 315° West 364 419 38,000  Level Atlanta Center
Fri 12:17:29 PM 32.9747 -87.2925 313° West 369 425 38,000  Level Atlanta Center
Fri 12:18:29 PM 33.0311 -87.3739 310° West 369 425 38,000  Level Atlanta Center
Fri 12:19:29 PM 33.0997 -87.4633 312° West 369 425 38,000  Level Atlanta Center
Fri 12:20:29 PM 33.1681 -87.5528 312° West 369 425 38,000  Level Atlanta Center
Fri 12:21:33 PM 33.2500 -87.6569 313° West 372 428 38,000  Level Memphis Center
Fri 12:22:33 PM 33.3186 -87.7444 313° West 367 422 38,000  Level Memphis Center
Fri 12:23:33 PM 33.3872 -87.8344 312° West 362 417 38,000  Level Memphis Center
Fri 12:24:33 PM 33.4558 -87.9247 312° West 362 417 38,000  Level Memphis Center
Fri 12:25:33 PM 33.5264 -88.0147 313° West 362 417 38,000  Level Memphis Center
Fri 12:26:33 PM 33.5969 -88.1028 314° West 362 417 38,000  Level Memphis Center
Fri 12:27:33 PM 33.6675 -88.1958 312° West 362 417 38,000  Level Memphis Center
Fri 12:28:33 PM 33.7294 -88.2742 314° West 362 417 38,000  Level Memphis Center
Fri 12:29:33 PM 33.7997 -88.3650 313° West 362 417 38,000  Level Memphis Center
Fri 12:30:33 PM 33.8700 -88.4583 312° West 362 417 38,000  Level Memphis Center
Fri 12:31:33 PM 33.9425 -88.5494 314° West 362 417 38,000  Level Memphis Center
Fri 12:32:33 PM 34.0106 -88.6431 311° West 362 417 38,000  Level Memphis Center
Fri 12:33:33 PM 34.0786 -88.7322 313° West 367 422 38,000  Level Memphis Center
Fri 12:34:33 PM 34.1528 -88.8286 313° West 367 422 38,000  Level Memphis Center
Fri 12:35:33 PM 34.2269 -88.9253 313° West 367 422 38,000  Level Memphis Center
Fri 12:36:33 PM 34.2989 -89.0194 313° West 367 422 38,000  Level Memphis Center
Fri 12:37:33 PM 34.3689 -89.1142 312° West 374 430 38,000  Level Memphis Center
Fri 12:38:33 PM 34.4428 -89.2061 314° West 379 436 38,000  Level Memphis Center
Fri 12:39:33 PM 34.5125 -89.3036 311° West 385 443 38,000  Level Memphis Center
Fri 12:40:33 PM 34.5822 -89.3936 313° West 380 437 38,000  Level Memphis Center
Fri 12:41:33 PM 34.6517 -89.4886 312° West 380 437 38,000  Level Memphis Center
Fri 12:42:33 PM 34.7169 -89.5789 311° West 373 429 38,000  Level Memphis Center
Fri 12:43:33 PM 34.7864 -89.6719 312° West 373 429 38,000  Level Memphis Center
Fri 12:44:33 PM 34.8536 -89.7625 312° West 373 429 38,000  Level Memphis Center
Fri 12:45:33 PM 34.9250 -89.8581 312° West 373 429 38,000  Level Memphis Center
Fri 12:46:33 PM 35.0025 -89.9592 313° West 395 455 38,000  Level Memphis Center
Fri 12:47:33 PM 35.0694 -90.0525 311° West 381 438 38,000  Level Memphis Center
Fri 12:48:33 PM 35.1364 -90.1439 312° West 370 426 38,000  Level Memphis Center
Fri 12:49:33 PM 35.1992 -90.2325 311° West 359 413 38,000  Level Memphis Center
Fri 12:50:33 PM 35.2681 -90.3264 312° West 359 413 38,000  Level Memphis Center
Fri 12:51:33 PM 35.3286 -90.4081 312° West 359 413 38,000  Level Memphis Center
Fri 12:52:33 PM 35.3931 -90.4997 311° West 359 413 38,000  Level Memphis Center
Fri 12:53:33 PM 35.4597 -90.5942 311° West 359 413 38,000  Level Memphis Center
Fri 12:54:33 PM 35.5264 -90.6836 312° West 358 412 38,000  Level Memphis Center
Fri 12:55:33 PM 35.5928 -90.7783 311° West 358 412 38,000  Level Memphis Center
Fri 12:56:33 PM 35.6550 -90.8706 310° West 358 412 38,000  Level Memphis Center
Fri 12:57:33 PM 35.7233 -90.9681 311° West 353 406 38,000  Level Memphis Center
Fri 12:58:33 PM 35.7917 -91.0633 311° West 358 412 38,000  Level Memphis Center
Fri 12:59:33 PM 35.8619 -91.1586 312° West 364 419 38,000  Level Memphis Center
Fri 01:00:33 PM 35.9242 -91.2492 310° West 358 412 38,000  Level Memphis Center
Fri 01:01:33 PM 35.9881 -91.3447 310° West 358 412 38,000  Level Memphis Center
Fri 01:02:33 PM 36.0581 -91.4406 312° West 365 420 38,000  Level Memphis Center
Fri 01:03:33 PM 36.1258 -91.5389 310° West 365 420 38,000  Level Memphis Center
Fri 01:04:33 PM 36.1917 -91.6350 310° West 365 420 38,000  Level Memphis Center
Fri 01:05:33 PM 36.2594 -91.7314 311° West 365 420 38,000  Level Memphis Center
Fri 01:06:33 PM 36.3314 -91.8253 314° West 365 420 38,000  Level Memphis Center
Fri 01:07:33 PM 36.4011 -91.9272 310° West 375 432 38,000  Level Memphis Center
Fri 01:08:33 PM 36.4706 -92.0292 310° West 382 440 38,000  Level Memphis Center
Fri 01:09:33 PM 36.5400 -92.1314 310° West 387 445 38,000  Level Memphis Center
Fri 01:12:04 PM 36.7128 -92.3808 311° West 393 452 38,000  Level Kansas City Center
Fri 01:13:05 PM 36.7836 -92.4831 311° West 391 450 38,000  Level Kansas City Center
Fri 01:14:07 PM 36.8547 -92.5892 310° West 392 451 38,000  Level Kansas City Center
Fri 01:15:08 PM 36.9264 -92.6944 310° West 394 453 38,000  Level Kansas City Center
Fri 01:16:09 PM 36.9992 -92.8019 310° West 399 459 38,000  Level Kansas City Center
Fri 01:17:13 PM 37.0717 -92.9100 310° West 401 461 38,000  Level Kansas City Center
Fri 01:18:13 PM 37.1444 -93.0183 310° West 401 461 38,000 -149 Level Kansas City Center
Fri 01:19:14 PM 37.2181 -93.1286 310° West 404 465 37,700 -677 Descending Kansas City Center
Fri 01:20:17 PM 37.3083 -93.2636 310° West 412 474 36,600 -823 Descending Kansas City Center
Fri 01:21:18 PM 37.3986 -93.3594 320° Northwest 428 493 36,000 -336 Descending Kansas City Center
Fri 01:22:22 PM 37.5100 -93.4194 337° Northwest 429 494 35,900 -528 Descending Kansas City Center
Fri 01:23:23 PM 37.6189 -93.4811 336° Northwest 429 494 34,900 -968 Descending Kansas City Center
Fri 01:24:26 PM 37.7294 -93.5433 336° Northwest 431 496 33,900 -968 Descending Kansas City Center
Fri 01:25:27 PM 37.8389 -93.6031 337° Northwest 428 493 32,900 -984 Descending Kansas City Center
Fri 01:26:28 PM 37.9472 -93.6653 336° Northwest 424 488 31,900 -1,024 Descending Kansas City Center
Fri 01:27:30 PM 38.0558 -93.7256 336° Northwest 423 487 30,800 -1,333 Descending Kansas City Center
Fri 01:28:34 PM 38.1839 -93.7983 336° Northwest 419 482 29,100 -1,824 Descending Kansas City Center
Fri 01:29:35 PM 38.2869 -93.8558 336° Northwest 407 468 27,000 -2,032 Descending Kansas City Center
Fri 01:30:38 PM 38.3867 -93.9131 336° Northwest 396 456 24,900 -2,049 Descending Kansas City Center
Fri 01:31:38 PM 38.4861 -93.9708 336° Northwest 380 437 22,800 -1,902 Descending Kansas City Center
Fri 01:32:41 PM 38.5733 -94.0200 336° Northwest 359 413 21,000 -1,839 Descending Kansas City Center
Fri 01:33:42 PM 38.6719 -94.0769 336° Northwest 349 402 19,000 -1,548 Descending Kansas City Center
Fri 01:34:45 PM 38.7403 -94.1428 323° Northwest 320 368 17,800 -1,440 Descending Kansas City Center
Fri 01:35:47 PM 38.8025 -94.2111 319° Northwest 309 356 16,000 -1,820 Descending Kansas City Center
Fri 01:36:47 PM 38.8750 -94.2892 320° Northwest 306 352 14,100 -1,680 Descending Kansas City Center
Fri 01:37:52 PM 38.9356 -94.3561 319° Northwest 301 346 12,500 -1,008 Descending Kansas City Center
Fri 01:38:52 PM 39.0036 -94.4294 320° Northwest 282 325 12,000 -242 Descending Kansas City Center
Fri 01:39:56 PM 39.0592 -94.4903 320° Northwest 276 318 12,000  Level Kansas City Center
Fri 01:40:56 PM 39.1211 -94.5575 320° Northwest 264 304 12,000 -98 Level Kansas City Center
Fri 01:41:58 PM 39.1731 -94.6142 320° Northwest 256 295 11,800 -762 Descending Kansas City Center
Fri 01:43:02 PM 39.2464 -94.6086 North 257 296 10,400 -1,161 Descending Kansas City Center
Fri 01:44:02 PM 39.3089 -94.5833 17° North 248 285 9,400 -1,016 Descending Kansas City Center
Fri 01:45:06 PM 39.3775 -94.5625 13° North 228 262 8,300 -1,065 Descending Kansas City Center
Fri 01:46:06 PM 39.4339 -94.5472 12° North 219 252 7,200 -1,220 Descending Kansas City Center
Fri 01:47:09 PM 39.4986 -94.5264 14° North 215 247 5,800 -1,355 Descending Kansas City Center
Fri 01:48:10 PM 39.5203 -94.5775 299° West 199 229 4,400 -871 Descending Kansas City Center
Fri 01:49:13 PM 39.4961 -94.6389 243° Southwest 175 201 4,000 -194 Descending Kansas City Center
Fri 01:50:14 PM 39.4542 -94.6583 200° South 169 194 4,000 -480 Level Kansas City Center
Fri 01:51:18 PM 39.4019 -94.6733 193° South 172 198 3,000 -871 Descending Kansas City Center
Fri 01:52:18 PM 39.3594 -94.6861 193° South 164 189 2,200 -774 Descending Kansas City Center
Fri 01:53:22 PM 39.3217 -94.6972 193° South 128 147 1,400 -581 Descending Kansas City Center
Fri 01:54:22 PM 39.2861 -94.7086 194° South 127 146 1,000 -400 Descending Kansas City Center

Login

Don't have an account? Register now (free) for customized features, flight alerts, and more!